TimeEST,TemperatureF,Dew PointF,Humidity,Sea Level PressureIn,VisibilityMPH,Wind Direction,Wind SpeedMPH,Gust SpeedMPH,PrecipitationIn,Events,Conditions,WindDirDegrees,DateUTC
12:15 AM,29.3,29.3,100,30.40,10.0,Calm,Calm,-,N/A,,Overcast,0,2013-03-08 05:15:00
12:35 AM,30.2,30.2,100,30.40,10.0,Calm,Calm,-,N/A,,Overcast,0,2013-03-08 05:35:00
12:55 AM,30.2,29.5,97,30.40,10.0,NNE,3.5,-,N/A,,Scattered Clouds,30,2013-03-08 05:55:00
1:15 AM,30.2,28.4,93,30.40,10.0,Calm,Calm,-,N/A,,Clear,0,2013-03-08 06:15:00
1:35 AM,28.2,27.0,95,30.41,10.0,Calm,Calm,-,N/A,,Clear,0,2013-03-08 06:35:00
1:55 AM,27.9,26.6,95,30.41,10.0,Calm,Calm,-,N/A,,Clear,0,2013-03-08 06:55:00
2:15 AM,27.9,25.7,92,30.41,10.0,Calm,Calm,-,N/A,,Clear,0,2013-03-08 07:15:00
2:35 AM,27.9,25.7,92,30.41,10.0,NE,3.5,-,N/A,,Clear,50,2013-03-08 07:35:00
2:55 AM,27.9,26.2,94,30.41,10.0,NNE,3.5,-,N/A,,Clear,20,2013-03-08 07:55:00
3:15 AM,27.0,24.4,90,30.41,10.0,Calm,Calm,-,N/A,,Clear,0,2013-03-08 08:15:00
3:35 AM,25.3,24.6,97,30.40,10.0,Calm,Calm,-,N/A,,Clear,0,2013-03-08 08:35:00
3:55 AM,22.5,22.3,99,30.40,10.0,Calm,Calm,-,N/A,,Clear,0,2013-03-08 08:55:00
4:15 AM,23.9,23.7,99,30.41,10.0,Calm,Calm,-,N/A,,Clear,0,2013-03-08 09:15:00
4:35 AM,25.0,25.0,100,30.42,10.0,Calm,Calm,-,N/A,,Clear,0,2013-03-08 09:35:00
4:55 AM,24.1,24.1,100,30.43,5.0,ENE,3.5,-,N/A,,Clear,60,2013-03-08 09:55:00
5:15 AM,21.9,21.9,100,30.43,7.0,NE,3.5,-,N/A,,Clear,40,2013-03-08 10:15:00
5:35 AM,25.3,25.3,100,30.44,5.0,NE,3.5,-,N/A,,Clear,40,2013-03-08 10:35:00
5:55 AM,25.3,25.3,100,30.44,3.0,NE,4.6,-,N/A,,Clear,40,2013-03-08 10:55:00
6:15 AM,25.3,25.3,100,30.45,5.0,Calm,Calm,-,N/A,,Clear,0,2013-03-08 11:15:00
6:35 AM,25.3,25.3,100,30.46,7.0,Calm,Calm,-,N/A,,Clear,0,2013-03-08 11:35:00
6:55 AM,25.2,25.2,100,30.47,7.0,Calm,Calm,-,N/A,,Clear,0,2013-03-08 11:55:00
7:15 AM,25.9,25.9,100,30.48,4.0,Calm,Calm,-,N/A,,Clear,0,2013-03-08 12:15:00
7:35 AM,25.0,25.0,100,30.48,2.5,Calm,Calm,-,N/A,,Clear,0,2013-03-08 12:35:00
7:55 AM,25.3,25.3,100,30.48,5.0,NE,3.5,-,N/A,,Clear,50,2013-03-08 12:55:00
8:15 AM,25.3,25.3,100,30.48,5.0,ENE,4.6,-,N/A,,Clear,60,2013-03-08 13:15:00
8:35 AM,27.9,27.9,100,30.47,10.0,ENE,4.6,-,N/A,,Clear,60,2013-03-08 13:35:00
8:55 AM,27.9,26.6,95,30.48,10.0,Calm,Calm,-,N/A,,Clear,0,2013-03-08 13:55:00
9:15 AM,30.2,27.9,91,30.48,10.0,Calm,Calm,-,N/A,,Clear,0,2013-03-08 14:15:00
9:35 AM,32.5,28.6,85,30.49,10.0,NE,3.5,-,N/A,,Clear,40,2013-03-08 14:35:00
9:55 AM,32.5,27.1,80,30.49,10.0,NNE,3.5,-,N/A,,Clear,30,2013-03-08 14:55:00
10:15 AM,35.1,27.9,75,30.49,10.0,Calm,Calm,-,N/A,,Clear,0,2013-03-08 15:15:00
10:35 AM,35.1,26.1,70,30.50,10.0,Calm,Calm,-,N/A,,Clear,0,2013-03-08 15:35:00
10:55 AM,35.2,24.4,65,30.50,10.0,Calm,Calm,-,N/A,,Clear,0,2013-03-08 15:55:00
11:15 AM,37.6,26.2,64,30.49,10.0,Calm,Calm,-,N/A,,Clear,0,2013-03-08 16:15:00
11:35 AM,37.6,26.1,63,30.49,10.0,Calm,Calm,-,N/A,,Clear,0,2013-03-08 16:35:00
11:55 AM,37.6,25.2,61,30.48,10.0,Calm,Calm,-,N/A,,Clear,0,2013-03-08 16:55:00
12:15 PM,37.6,25.5,62,30.48,10.0,NE,6.9,-,N/A,,Clear,40,2013-03-08 17:15:00
12:35 PM,37.6,24.3,59,30.48,10.0,Calm,Calm,-,N/A,,Clear,0,2013-03-08 17:35:00
12:55 PM,38.8,24.6,57,30.47,10.0,NNE,5.8,-,N/A,,Clear,20,2013-03-08 17:55:00
1:15 PM,39.0,24.1,55,30.47,10.0,Calm,Calm,-,N/A,,Clear,0,2013-03-08 18:15:00
1:35 PM,39.9,24.4,54,30.46,10.0,East,5.8,-,N/A,,Clear,90,2013-03-08 18:35:00
1:55 PM,39.2,24.6,56,30.45,10.0,Calm,Calm,-,N/A,,Clear,0,2013-03-08 18:55:00
2:15 PM,40.1,25.7,56,30.45,10.0,ENE,3.5,-,N/A,,Clear,70,2013-03-08 19:15:00
2:35 PM,40.5,25.9,56,30.45,10.0,ENE,3.5,-,N/A,,Clear,60,2013-03-08 19:35:00
2:55 PM,40.3,25.2,55,30.45,10.0,ENE,4.6,-,N/A,,Clear,70,2013-03-08 19:55:00
3:15 PM,40.5,25.0,54,30.44,10.0,Calm,Calm,-,N/A,,Clear,0,2013-03-08 20:15:00
3:35 PM,41.4,26.1,55,30.44,10.0,ENE,5.8,-,N/A,,Clear,70,2013-03-08 20:35:00
3:55 PM,41.5,25.7,53,30.43,10.0,ENE,3.5,-,N/A,,Clear,70,2013-03-08 20:55:00
4:15 PM,41.2,24.6,52,30.43,10.0,Calm,Calm,-,N/A,,Clear,0,2013-03-08 21:15:00
4:35 PM,41.4,24.6,51,30.42,10.0,Calm,Calm,-,N/A,,Clear,0,2013-03-08 21:35:00
4:55 PM,41.4,25.7,54,30.40,10.0,NE,5.8,-,N/A,,Clear,40,2013-03-08 21:55:00
5:15 PM,41.4,25.7,54,30.40,10.0,East,8.1,-,N/A,,Clear,100,2013-03-08 22:15:00
5:35 PM,40.8,25.7,55,30.40,10.0,ESE,5.8,-,N/A,,Clear,110,2013-03-08 22:35:00
5:55 PM,40.1,27.1,60,30.41,10.0,East,4.6,-,N/A,,Clear,90,2013-03-08 22:55:00
6:15 PM,39.2,26.6,61,30.41,10.0,ESE,4.6,-,N/A,,Clear,110,2013-03-08 23:15:00
6:35 PM,38.1,26.6,63,30.41,10.0,ESE,4.6,-,N/A,,Clear,110,2013-03-08 23:35:00
6:55 PM,37.6,26.4,64,30.41,10.0,ESE,3.5,-,N/A,,Clear,110,2013-03-08 23:55:00
7:15 PM,37.6,27.1,66,30.42,10.0,East,3.5,-,N/A,,Clear,90,2013-03-09 00:15:00
7:35 PM,35.1,30.2,82,30.42,10.0,Calm,Calm,-,N/A,,Clear,0,2013-03-09 00:35:00
7:55 PM,32.5,30.0,90,30.42,10.0,Calm,Calm,-,N/A,,Clear,0,2013-03-09 00:55:00
8:15 PM,32.5,31.3,95,30.43,10.0,Calm,Calm,-,N/A,,Clear,0,2013-03-09 01:15:00
8:35 PM,32.5,31.1,94,30.43,10.0,Calm,Calm,-,N/A,,Clear,0,2013-03-09 01:35:00
8:55 PM,30.2,29.3,96,30.43,10.0,Calm,Calm,-,N/A,,Clear,0,2013-03-09 01:55:00
9:15 PM,30.4,29.5,96,30.43,10.0,Calm,Calm,-,N/A,,Clear,0,2013-03-09 02:15:00
9:35 PM,29.3,28.6,97,30.43,10.0,North,3.5,-,N/A,,Clear,10,2013-03-09 02:35:00
9:55 PM,27.9,27.0,96,30.43,10.0,Calm,Calm,-,N/A,,Clear,0,2013-03-09 02:55:00
10:15 PM,27.9,27.3,98,30.42,10.0,Calm,Calm,-,N/A,,Clear,0,2013-03-09 03:15:00
10:35 PM,30.0,29.5,98,30.41,10.0,North,3.5,-,N/A,,Clear,360,2013-03-09 03:35:00
10:55 PM,27.9,27.3,98,30.41,10.0,North,3.5,-,N/A,,Clear,360,2013-03-09 03:55:00
11:15 PM,28.2,28.0,99,30.41,10.0,North,3.5,-,N/A,,Clear,10,2013-03-09 04:15:00
11:35 PM,28.8,28.2,98,30.41,10.0,Calm,Calm,-,N/A,,Clear,0,2013-03-09 04:35:00
11:55 PM,29.1,28.6,98,30.41,10.0,Calm,Calm,-,N/A,,Clear,0,2013-03-09 04:55:00